Rechercher aéroport 
image banner adimage banner adimage banner ad
image banner ad

CA77 - Ridgecrest Community Hospital

Situé à Ridgecrest, United States

ICAO - CA77, IATA -

Données fournies par Airmate  

Information générale

Coordonnées: N35°38'25" W117°40'20"
Élévation : 2290 feet MSL.
Variation magnétique : 14° East
Voir autres Aéroports à California

Données opérationnelles

Special qualification required
Heure actuelle UTC:
Heure actuelle locale:
METAR: KNID 291456Z 24004KT 10SM FEW120 BKN150 BKN220 30/09 A2999 RMK AO2 SLP129 T03000089 51012 $
TAF: TAF KNID 2915/3015 VRB04KT 9999 FEW110 BKN150 BKN220 QNH2992INS BECMG 2918/2920 16007KT 9999 FEW110 SCT160 BKN250 QNH2987INS TS DSNT OMTNS BECMG 2920/2922 19009G16KT 9999 VCSHRA SCT100 SCT170 BKN250 QNH2982INS WND 150V230 TS OMTNS TEMPO 2923/3002 VRB15G25KT 9999 VCTS FEWCB080 BKN100 BKN170 BECMG 3002/3004 31010G16KT 9999 NSW FEW130 FEW170 QNH2985INS WND 24008KT AFT 3008 T41/2923Z T26/3013Z
Voir NOTAMs / SUP AIP / TFR affectant cet aéroport [VIEW]
Fréquences de communication: [VIEW]

Pistes:

Coordonnées de l'aéroport

Adresse: Ridgecrest United States

Vue satellite de CA77